createdAt,value
2022-11-17T00:00:35.514Z,99465.06
2022-11-17T00:03:04.653Z,99462.16
2022-11-17T00:05:32.335Z,99460.72
2022-11-17T00:07:59.980Z,99451.75
2022-11-17T00:10:27.633Z,99452.41
2022-11-17T00:13:12.674Z,99451.19
2022-11-17T00:15:43.831Z,99433.56
2022-11-17T00:18:38.639Z,99440.16
2022-11-17T00:21:23.357Z,99425.72
2022-11-17T00:23:51.210Z,99416.00
2022-11-17T00:26:20.404Z,99410.81
2022-11-17T00:28:48.232Z,99397.56
2022-11-17T00:31:33.949Z,99401.72
2022-11-17T00:34:05.733Z,99403.31
2022-11-17T00:36:35.559Z,99398.16
2022-11-17T00:39:03.619Z,99401.50
2022-11-17T00:41:31.992Z,99399.78
2022-11-17T00:43:59.692Z,99391.56
2022-11-17T00:46:27.706Z,99387.81
2022-11-17T00:48:55.508Z,99385.94
2022-11-17T00:51:25.374Z,99388.28
2022-11-17T00:53:53.629Z,99385.81
2022-11-17T00:56:21.435Z,99369.81
2022-11-17T00:58:49.088Z,99368.56
2022-11-17T01:01:17.084Z,99360.25
2022-11-17T01:03:44.954Z,99366.09
2022-11-17T01:06:14.355Z,99355.75
2022-11-17T01:08:43.969Z,99349.50
2022-11-17T01:11:13.285Z,99362.75
2022-11-17T01:13:41.972Z,99359.81
2022-11-17T01:16:12.290Z,99367.09
2022-11-17T01:18:41.008Z,99363.81
2022-11-17T01:21:11.465Z,99355.53
2022-11-17T01:23:40.807Z,99343.53
2022-11-17T01:26:11.922Z,99353.88
2022-11-17T01:28:40.553Z,99358.41
2022-11-17T01:31:11.575Z,99339.56
2022-11-17T01:33:39.273Z,99332.34
2022-11-17T01:36:09.406Z,99335.81
2022-11-17T01:38:37.176Z,99333.38
2022-11-17T01:41:07.747Z,99328.25
2022-11-17T01:43:43.059Z,99322.63
2022-11-17T01:46:19.075Z,99320.59
2022-11-17T01:48:48.036Z,99332.16
2022-11-17T01:51:17.002Z,99338.31
2022-11-17T01:53:47.001Z,99316.41
2022-11-17T01:56:18.676Z,99309.16
2022-11-17T01:58:53.193Z,99292.41
2022-11-17T02:01:20.965Z,99295.72
2022-11-17T02:03:51.581Z,99293.41
2022-11-17T02:06:25.844Z,99288.84
2022-11-17T02:08:54.763Z,99285.72
2022-11-17T02:11:23.914Z,99279.31
2022-11-17T02:13:55.585Z,99279.38
2022-11-17T02:16:23.236Z,99279.59
2022-11-17T02:18:50.953Z,99284.75
2022-11-17T02:21:35.717Z,99272.56
2022-11-17T02:24:35.531Z,99282.94
2022-11-17T02:27:35.802Z,99268.44
2022-11-17T02:30:05.787Z,99257.53
2022-11-17T02:32:46.991Z,99248.38
2022-11-17T02:35:23.532Z,99251.50
2022-11-17T02:38:00.366Z,99234.69
2022-11-17T02:40:33.585Z,99233.03
2022-11-17T02:43:23.984Z,99238.41
2022-11-17T02:45:55.051Z,99226.81
2022-11-17T02:48:28.448Z,99234.72
2022-11-17T02:50:58.415Z,99219.41
2022-11-17T02:53:28.551Z,99227.91
2022-11-17T02:55:56.258Z,99237.59
2022-11-17T02:58:25.473Z,99204.75
2022-11-17T03:01:04.779Z,99202.88
2022-11-17T03:03:45.689Z,99209.75
2022-11-17T03:06:24.417Z,99197.75
2022-11-17T03:09:01.930Z,99200.19
2022-11-17T03:11:38.427Z,99182.03
2022-11-17T03:14:12.015Z,99185.31
2022-11-17T03:16:51.583Z,99197.75
2022-11-17T03:19:26.345Z,99176.84
2022-11-17T03:22:00.373Z,99184.06
2022-11-17T03:24:31.135Z,99176.00
2022-11-17T03:27:03.379Z,99188.81
2022-11-17T03:29:36.272Z,99185.31
2022-11-17T03:32:07.500Z,99191.09
2022-11-17T03:34:38.564Z,99179.06
2022-11-17T03:37:09.915Z,99175.38
2022-11-17T03:39:41.587Z,99171.22
2022-11-17T03:42:14.663Z,99178.69
2022-11-17T03:44:48.389Z,99185.72
2022-11-17T03:47:18.619Z,99182.00
2022-11-17T03:49:52.208Z,99169.63
2022-11-17T03:52:21.338Z,99164.63
2022-11-17T03:54:49.274Z,99169.78
2022-11-17T03:57:20.985Z,99163.81
2022-11-17T03:59:58.215Z,99159.25
2022-11-17T04:02:27.895Z,99157.44
2022-11-17T04:05:07.677Z,99154.75
2022-11-17T04:07:37.341Z,99155.34
2022-11-17T04:10:06.161Z,99154.91
2022-11-17T04:12:51.671Z,99129.50
2022-11-17T04:15:38.231Z,99130.13
2022-11-17T04:18:06.299Z,99123.09
2022-11-17T04:20:36.809Z,99129.72
2022-11-17T04:23:11.379Z,99115.47
2022-11-17T04:25:58.685Z,99122.88
2022-11-17T04:28:40.283Z,99113.00
2022-11-17T04:31:12.707Z,99118.53
2022-11-17T04:33:42.160Z,99117.09
2022-11-17T04:36:11.504Z,99102.44
2022-11-17T04:38:42.300Z,99111.31
2022-11-17T04:41:29.789Z,99102.25
2022-11-17T04:43:57.881Z,99113.56
2022-11-17T04:46:27.877Z,99103.88
2022-11-17T04:48:56.315Z,99103.69
2022-11-17T04:51:24.763Z,99099.75
2022-11-17T04:53:53.123Z,99104.53
2022-11-17T04:56:21.890Z,99105.13
2022-11-17T04:58:50.524Z,99102.84
2022-11-17T05:01:18.835Z,99108.22
2022-11-17T05:03:49.912Z,99085.72
2022-11-17T05:06:19.458Z,99103.50
2022-11-17T05:08:47.553Z,99082.81
2022-11-17T05:11:34.257Z,99080.97
2022-11-17T05:14:02.556Z,99087.78
2022-11-17T05:16:47.710Z,99073.97
2022-11-17T05:19:19.102Z,99091.47
2022-11-17T05:21:46.782Z,99089.00
2022-11-17T05:24:14.309Z,99103.88
2022-11-17T05:26:43.561Z,99072.50
2022-11-17T05:29:13.023Z,99080.94
2022-11-17T05:31:40.971Z,99080.34
2022-11-17T05:34:10.466Z,99069.59
2022-11-17T05:36:40.112Z,99069.19
2022-11-17T05:39:08.412Z,99077.00
2022-11-17T05:41:37.043Z,99072.50
2022-11-17T05:44:05.396Z,99086.53
2022-11-17T05:46:33.076Z,99069.59
2022-11-17T05:49:00.991Z,99072.28
2022-11-17T05:51:28.664Z,99075.19
2022-11-17T05:53:57.690Z,99073.09
2022-11-17T05:56:36.435Z,99067.31
2022-11-17T05:59:13.063Z,99073.09
2022-11-17T06:01:47.463Z,99070.84
2022-11-17T06:04:20.084Z,99067.53
2022-11-17T06:06:48.976Z,99052.03
2022-11-17T06:09:18.033Z,99060.09
2022-11-17T06:11:45.740Z,99065.03
2022-11-17T06:14:13.595Z,99059.66
2022-11-17T06:16:44.893Z,99071.00
2022-11-17T06:19:17.459Z,99064.59
2022-11-17T06:22:10.736Z,99054.50
2022-11-17T06:24:34.822Z,99060.88
2022-11-17T06:27:02.628Z,99058.41
2022-11-17T06:29:31.061Z,99053.41
2022-11-17T06:31:59.937Z,99067.69
2022-11-17T06:34:28.795Z,99072.22
2022-11-17T06:36:56.378Z,99045.81
2022-11-17T06:39:23.998Z,99049.09
2022-11-17T06:41:52.993Z,99039.00
2022-11-17T06:44:20.634Z,99041.22
2022-11-17T06:46:49.287Z,99046.22
2022-11-17T06:49:17.397Z,99041.88
2022-11-17T06:51:45.761Z,99044.16
2022-11-17T06:54:14.772Z,99034.63
2022-11-17T06:56:43.575Z,99043.53
2022-11-17T06:59:15.914Z,99036.50
2022-11-17T07:01:44.217Z,99042.28
2022-11-17T07:04:12.005Z,99050.47
2022-11-17T07:06:39.840Z,99047.22
2022-11-17T07:09:07.649Z,99042.69
2022-11-17T07:11:35.957Z,99044.53
2022-11-17T07:14:04.130Z,99047.38
2022-11-17T07:16:33.448Z,99031.88
2022-11-17T07:19:03.364Z,99043.28
2022-11-17T07:21:31.092Z,99036.03
2022-11-17T07:23:58.927Z,99018.25
2022-11-17T07:26:26.596Z,99016.22
2022-11-17T07:28:54.295Z,99006.06
2022-11-17T07:31:22.287Z,99020.72
2022-11-17T07:33:51.364Z,99020.28
2022-11-17T07:36:19.003Z,99016.53
2022-11-17T07:38:47.378Z,99028.19
2022-11-17T07:41:15.836Z,99028.19
2022-11-17T07:43:43.484Z,99024.66
2022-11-17T07:46:13.422Z,99015.56
2022-11-17T07:48:41.339Z,99019.94
2022-11-17T07:51:10.697Z,99011.50
2022-11-17T07:53:38.296Z,99011.63
2022-11-17T07:56:07.723Z,99011.25
2022-11-17T07:58:36.377Z,99003.84
2022-11-17T08:01:05.938Z,99008.78
2022-11-17T08:03:33.730Z,98999.31
2022-11-17T08:06:02.859Z,98986.75
2022-11-17T08:08:32.389Z,98989.41
2022-11-17T08:11:03.002Z,98972.03
2022-11-17T08:13:30.906Z,98976.78
2022-11-17T08:15:59.129Z,98974.31
2022-11-17T08:18:27.322Z,98964.81
2022-11-17T08:21:01.852Z,98956.78
2022-11-17T08:23:29.515Z,98939.41
2022-11-17T08:25:58.650Z,98948.03
2022-11-17T08:28:26.366Z,98952.59
2022-11-17T08:30:54.397Z,98944.75
2022-11-17T08:33:22.271Z,98943.78
2022-11-17T08:35:49.987Z,98948.06
2022-11-17T08:38:18.219Z,98957.91
2022-11-17T08:40:47.613Z,98950.94
2022-11-17T08:43:16.583Z,98955.03
2022-11-17T08:45:44.321Z,98941.03
2022-11-17T08:48:12.104Z,98961.25
2022-11-17T08:50:40.038Z,98951.81
2022-11-17T08:53:07.752Z,98973.09
2022-11-17T08:55:41.253Z,98953.06
2022-11-17T08:58:09.705Z,98950.53
2022-11-17T09:00:38.803Z,98949.50
2022-11-17T09:03:07.290Z,98943.56
2022-11-17T09:05:39.373Z,98945.78
2022-11-17T09:08:37.870Z,98951.97
2022-11-17T09:10:55.224Z,98951.41
2022-11-17T09:13:23.135Z,98949.13
2022-11-17T09:15:52.355Z,98955.88
2022-11-17T09:18:20.128Z,98947.06
2022-11-17T09:20:47.842Z,98948.31
2022-11-17T09:23:15.777Z,98949.16
2022-11-17T09:25:43.553Z,98960.28
2022-11-17T09:28:11.272Z,98966.50
2022-11-17T09:30:39.241Z,98961.31
2022-11-17T09:33:08.341Z,98962.94
2022-11-17T09:35:36.071Z,98965.81
2022-11-17T09:38:04.105Z,98968.72
2022-11-17T09:40:37.465Z,98964.41
2022-11-17T09:43:08.933Z,98975.13
2022-11-17T09:45:39.683Z,98967.09
2022-11-17T09:48:43.693Z,98974.50
2022-11-17T09:51:05.065Z,98978.03
2022-11-17T09:53:44.247Z,98975.56
2022-11-17T09:56:14.456Z,98969.19
2022-11-17T09:58:47.104Z,98975.16
2022-11-17T10:01:17.867Z,98970.41
2022-11-17T10:03:49.138Z,98965.28
2022-11-17T10:06:20.189Z,98971.25
2022-11-17T10:09:00.475Z,98952.69
2022-11-17T10:11:33.546Z,98953.91
2022-11-17T10:14:12.517Z,98954.75
2022-11-17T10:16:43.002Z,98949.75
2022-11-17T10:19:16.741Z,98965.88
2022-11-17T10:21:45.067Z,98963.19
2022-11-17T10:24:32.865Z,98962.81
2022-11-17T10:27:02.059Z,98970.44
2022-11-17T10:29:30.044Z,98972.31
2022-11-17T10:31:59.633Z,98968.41
2022-11-17T10:34:40.322Z,98957.22
2022-11-17T10:37:25.716Z,98952.09
2022-11-17T10:40:10.318Z,98951.25
2022-11-17T10:42:54.646Z,98943.44
2022-11-17T10:45:22.558Z,98946.75
2022-11-17T10:47:50.737Z,98932.50
2022-11-17T10:50:25.293Z,98945.28
2022-11-17T10:52:54.594Z,98933.72
2022-11-17T10:55:28.326Z,98926.09
2022-11-17T10:58:01.018Z,98934.56
2022-11-17T11:00:31.924Z,98926.53
2022-11-17T11:03:15.697Z,98923.00
2022-11-17T11:06:01.345Z,98928.34
2022-11-17T11:08:34.715Z,98911.66
2022-11-17T11:11:07.196Z,98911.06
2022-11-17T11:13:42.320Z,98907.31
2022-11-17T11:16:12.558Z,98910.63
2022-11-17T11:18:40.419Z,98905.28
2022-11-17T11:21:17.349Z,98911.88
2022-11-17T11:23:51.929Z,98912.28
2022-11-17T11:26:49.096Z,98913.94
2022-11-17T11:29:28.961Z,98905.69
2022-11-17T11:32:17.485Z,98908.16
2022-11-17T11:35:04.803Z,98905.91
2022-11-17T11:37:44.778Z,98906.50
2022-11-17T11:40:21.761Z,98911.88
2022-11-17T11:42:57.635Z,98912.69
2022-11-17T11:45:42.501Z,98905.69
2022-11-17T11:48:17.949Z,98906.50
2022-11-17T11:50:57.586Z,98903.19
2022-11-17T11:53:32.876Z,98914.78
2022-11-17T11:56:10.476Z,98905.47
2022-11-17T11:58:43.423Z,98908.38
2022-11-17T12:01:13.073Z,98919.28
2022-11-17T12:03:48.527Z,98917.88
2022-11-17T12:06:43.664Z,98917.03
2022-11-17T12:09:32.840Z,98918.47
2022-11-17T12:12:03.193Z,98922.19
2022-11-17T12:14:35.223Z,98915.78
2022-11-17T12:17:07.293Z,98926.53
2022-11-17T12:19:52.490Z,98926.75
2022-11-17T12:22:53.803Z,98933.53
2022-11-17T12:25:30.171Z,98937.88
2022-11-17T12:27:57.912Z,98933.75
2022-11-17T12:30:54.880Z,98931.06
2022-11-17T12:33:23.375Z,98927.97
2022-11-17T12:36:30.966Z,98940.78
2022-11-17T12:39:00.926Z,98929.41
2022-11-17T12:42:07.917Z,98922.59
2022-11-17T12:45:01.053Z,98938.09
2022-11-17T12:47:30.745Z,98930.44
2022-11-17T12:50:28.268Z,98929.41
2022-11-17T12:53:20.106Z,98932.09
2022-11-17T12:56:16.914Z,98936.22
2022-11-17T12:58:59.317Z,98938.91
2022-11-17T13:01:38.796Z,98933.75
2022-11-17T13:04:13.208Z,98942.63
2022-11-17T13:06:59.484Z,98936.66
2022-11-17T13:09:30.000Z,98940.78
2022-11-17T13:12:04.164Z,98936.03
2022-11-17T13:14:34.105Z,98942.81
2022-11-17T13:17:03.434Z,98939.72
2022-11-17T13:19:37.428Z,98952.53
2022-11-17T13:22:07.431Z,98955.22
2022-11-17T13:24:37.351Z,98957.28
2022-11-17T13:27:08.306Z,98953.56
2022-11-17T13:29:37.872Z,98949.63
2022-11-17T13:32:17.292Z,98946.97
2022-11-17T13:34:57.159Z,98956.88
2022-11-17T13:37:28.559Z,98955.22
2022-11-17T13:39:58.559Z,98951.50
2022-11-17T13:42:28.884Z,98955.00
2022-11-17T13:45:00.865Z,98943.84
2022-11-17T13:47:42.128Z,98934.97
2022-11-17T13:50:23.279Z,98945.09
2022-11-17T13:52:55.015Z,98957.09
2022-11-17T13:55:23.847Z,98958.91
2022-11-17T13:57:57.652Z,98954.78
2022-11-17T14:00:27.072Z,98956.88
2022-11-17T14:02:55.861Z,98951.28
2022-11-17T14:05:26.383Z,98953.34
2022-11-17T14:07:56.697Z,98958.31
2022-11-17T14:10:30.498Z,98962.66
2022-11-17T14:13:20.278Z,98961.41
2022-11-17T14:15:56.460Z,98970.50
2022-11-17T14:18:29.978Z,98965.13
2022-11-17T14:21:13.393Z,98957.25
2022-11-17T14:23:41.824Z,98966.16
2022-11-17T14:26:19.176Z,98951.50
2022-11-17T14:28:48.131Z,98947.38
2022-11-17T14:31:17.732Z,98955.84
2022-11-17T14:33:45.826Z,98955.63
2022-11-17T14:36:16.177Z,98966.38
2022-11-17T14:38:44.977Z,98968.22
2022-11-17T14:41:12.783Z,98954.78
2022-11-17T14:43:40.797Z,98965.53
2022-11-17T14:46:18.571Z,98960.59
2022-11-17T14:48:46.578Z,98968.00
2022-11-17T14:51:16.141Z,98965.94
2022-11-17T14:53:45.020Z,98973.56
2022-11-17T14:56:16.058Z,98977.31
2022-11-17T14:58:44.117Z,98981.63
2022-11-17T15:01:14.860Z,98977.91
2022-11-17T15:03:45.039Z,98977.91
2022-11-17T15:06:19.318Z,98980.59
2022-11-17T15:08:56.461Z,98982.69
2022-11-17T15:11:25.724Z,98987.41
2022-11-17T15:13:53.733Z,98996.09
2022-11-17T15:16:21.464Z,98996.09
2022-11-17T15:18:50.693Z,98982.88
2022-11-17T15:21:19.029Z,98998.38
2022-11-17T15:23:47.041Z,98994.22
2022-11-17T15:26:16.989Z,99007.06
2022-11-17T15:28:45.818Z,98995.69
2022-11-17T15:31:15.754Z,99003.50
2022-11-17T15:33:45.411Z,99019.63
2022-11-17T15:36:16.665Z,99007.03
2022-11-17T15:38:46.404Z,99011.78
2022-11-17T15:41:15.623Z,99010.31
2022-11-17T15:43:45.295Z,99015.09
2022-11-17T15:46:15.299Z,99011.97
2022-11-17T15:48:45.014Z,99012.63
2022-11-17T15:51:15.778Z,99019.41
2022-11-17T15:53:44.767Z,99022.09
2022-11-17T15:56:14.317Z,99014.25
2022-11-17T15:58:43.624Z,99020.88
2022-11-17T16:01:13.825Z,99027.88
2022-11-17T16:03:42.609Z,99025.19
2022-11-17T16:06:11.287Z,99025.41
2022-11-17T16:08:40.840Z,99019.41
2022-11-17T16:11:09.132Z,99020.03
2022-11-17T16:13:38.547Z,99015.47
2022-11-17T16:16:07.372Z,99019.84
2022-11-17T16:18:35.939Z,99020.25
2022-11-17T16:21:05.352Z,99025.63
2022-11-17T16:23:40.123Z,99020.88
2022-11-17T16:26:08.635Z,99026.03
2022-11-17T16:28:36.307Z,99020.47
2022-11-17T16:31:14.306Z,99029.94
2022-11-17T16:33:47.218Z,99026.22
2022-11-17T16:36:15.359Z,99021.28
2022-11-17T16:39:02.302Z,99028.31
2022-11-17T16:41:32.900Z,99021.06
2022-11-17T16:44:00.991Z,99026.66
2022-11-17T16:46:31.157Z,99020.88
2022-11-17T16:49:02.684Z,99022.94
2022-11-17T16:51:30.437Z,99025.44
2022-11-17T16:54:03.965Z,99023.75
2022-11-17T16:56:33.117Z,99027.09
2022-11-17T16:59:01.386Z,99026.22
2022-11-17T17:01:31.784Z,99024.19
2022-11-17T17:04:01.401Z,99012.81
2022-11-17T17:06:29.801Z,99020.66
2022-11-17T17:08:58.977Z,99014.47
2022-11-17T17:11:29.296Z,99020.47
2022-11-17T17:13:57.996Z,99020.47
2022-11-17T17:16:26.034Z,99011.78
2022-11-17T17:18:59.581Z,99025.84
2022-11-17T17:21:29.004Z,99023.75
2022-11-17T17:23:57.826Z,99018.59
2022-11-17T17:26:29.205Z,99031.00
2022-11-17T17:28:59.996Z,99035.34
2022-11-17T17:31:31.735Z,99046.09
2022-11-17T17:34:00.879Z,99038.63
2022-11-17T17:36:29.741Z,99052.47
2022-11-17T17:38:59.679Z,99055.16
2022-11-17T17:41:30.986Z,99046.91
2022-11-17T17:44:00.563Z,99049.38
2022-11-17T17:46:30.931Z,99048.34
2022-11-17T17:48:59.499Z,99051.84
2022-11-17T17:51:28.557Z,99062.19
2022-11-17T17:53:58.264Z,99050.81
2022-11-17T17:56:26.461Z,99065.91
2022-11-17T17:58:56.580Z,99063.03
2022-11-17T18:01:26.293Z,99063.88
2022-11-17T18:04:00.903Z,99062.19
2022-11-17T18:06:28.671Z,99065.50
2022-11-17T18:08:57.270Z,99065.91
2022-11-17T18:11:25.557Z,99070.84
2022-11-17T18:13:54.124Z,99071.69
2022-11-17T18:16:25.111Z,99081.19
2022-11-17T18:18:58.025Z,99076.22
2022-11-17T18:21:27.049Z,99075.44
2022-11-17T18:23:55.779Z,99087.00
2022-11-17T18:26:25.310Z,99084.28
2022-11-17T18:28:55.734Z,99084.06
2022-11-17T18:31:27.945Z,99079.56
2022-11-17T18:33:57.845Z,99079.94
2022-11-17T18:36:26.358Z,99077.84
2022-11-17T18:38:54.918Z,99081.34
2022-11-17T18:41:24.016Z,99077.41
2022-11-17T18:43:52.485Z,99072.47
2022-11-17T18:46:22.208Z,99070.63
2022-11-17T18:48:52.656Z,99063.81
2022-11-17T18:51:22.608Z,99068.19
2022-11-17T18:53:51.911Z,99069.78
2022-11-17T18:56:22.364Z,99064.22
2022-11-17T18:58:50.284Z,99057.44
2022-11-17T19:01:20.143Z,99067.53
2022-11-17T19:03:49.957Z,99063.00
2022-11-17T19:06:20.462Z,99069.81
2022-11-17T19:08:49.072Z,99083.88
2022-11-17T19:11:18.520Z,99082.88
2022-11-17T19:13:47.344Z,99087.63
2022-11-17T19:16:17.049Z,99095.88
2022-11-17T19:18:46.765Z,99094.00
2022-11-17T19:21:20.499Z,99093.59
2022-11-17T19:23:52.170Z,99094.84
2022-11-17T19:26:21.868Z,99097.94
2022-11-17T19:28:50.441Z,99101.88
2022-11-17T19:31:20.201Z,99104.75
2022-11-17T19:33:49.105Z,99101.66
2022-11-17T19:36:20.010Z,99107.84
2022-11-17T19:38:52.531Z,99096.09
2022-11-17T19:41:22.301Z,99094.22
2022-11-17T19:43:53.214Z,99096.69
2022-11-17T19:46:22.358Z,99099.59
2022-11-17T19:48:53.302Z,99105.41
2022-11-17T19:51:26.143Z,99099.78
2022-11-17T19:53:56.205Z,99113.47
2022-11-17T19:56:25.394Z,99107.22
2022-11-17T19:58:55.546Z,99110.78
2022-11-17T20:01:25.217Z,99120.47
2022-11-17T20:03:53.664Z,99113.84
2022-11-17T20:06:26.946Z,99115.28
2022-11-17T20:08:55.438Z,99124.19
2022-11-17T20:11:25.143Z,99123.34
2022-11-17T20:13:53.007Z,99119.63
2022-11-17T20:16:24.375Z,99120.88
2022-11-17T20:18:53.947Z,99108.28
2022-11-17T20:21:23.739Z,99109.91
2022-11-17T20:23:51.651Z,99114.47
2022-11-17T20:26:22.017Z,99118.84
2022-11-17T20:28:49.922Z,99112.19
2022-11-17T20:31:20.138Z,99125.44
2022-11-17T20:33:49.177Z,99116.34
2022-11-17T20:36:19.191Z,99124.19
2022-11-17T20:38:50.899Z,99136.19
2022-11-17T20:41:20.725Z,99133.72
2022-11-17T20:43:49.518Z,99133.47
2022-11-17T20:46:17.515Z,99132.03
2022-11-17T20:48:45.412Z,99138.25
2022-11-17T20:51:15.005Z,99140.31
2022-11-17T20:53:42.737Z,99140.31
2022-11-17T20:56:14.076Z,99141.56
2022-11-17T20:58:41.761Z,99150.66
2022-11-17T21:01:11.280Z,99150.22
2022-11-17T21:03:39.946Z,99149.63
2022-11-17T21:06:08.565Z,99159.13
2022-11-17T21:08:38.234Z,99152.31
2022-11-17T21:11:07.599Z,99165.75
2022-11-17T21:13:38.078Z,99160.16
2022-11-17T21:16:09.117Z,99162.22
2022-11-17T21:18:38.397Z,99178.97
2022-11-17T21:21:08.920Z,99185.38
2022-11-17T21:23:37.384Z,99177.72
2022-11-17T21:26:06.854Z,99183.31
2022-11-17T21:28:36.764Z,99194.88
2022-11-17T21:31:07.538Z,99194.44
2022-11-17T21:33:35.354Z,99193.44
2022-11-17T21:36:03.512Z,99200.88
2022-11-17T21:38:33.909Z,99203.34
2022-11-17T21:41:03.613Z,99206.44
2022-11-17T21:43:31.822Z,99204.38
2022-11-17T21:46:04.054Z,99201.47
2022-11-17T21:48:31.910Z,99202.13
2022-11-17T21:51:00.088Z,99195.50
2022-11-17T21:53:27.932Z,99204.59
2022-11-17T21:56:01.385Z,99207.28
2022-11-17T21:58:29.724Z,99214.72
2022-11-17T22:00:57.749Z,99213.28
2022-11-17T22:03:28.153Z,99216.81
2022-11-17T22:06:02.061Z,99211.63
2022-11-17T22:08:30.268Z,99218.66
2022-11-17T22:10:58.002Z,99226.09
2022-11-17T22:13:25.820Z,99224.22
2022-11-17T22:15:53.798Z,99225.88
2022-11-17T22:18:21.491Z,99228.34
2022-11-17T22:20:52.552Z,99230.22
2022-11-17T22:23:20.359Z,99224.22
2022-11-17T22:25:55.411Z,99231.47
2022-11-17T22:28:25.099Z,99242.84
2022-11-17T22:30:53.886Z,99239.94
2022-11-17T22:33:23.424Z,99238.28
2022-11-17T22:35:52.429Z,99247.78
2022-11-17T22:38:20.352Z,99243.22
2022-11-17T22:40:48.597Z,99248.59
2022-11-17T22:43:16.642Z,99249.03
2022-11-17T22:45:46.000Z,99248.97
2022-11-17T22:48:13.868Z,99242.53
2022-11-17T22:50:41.570Z,99251.88
2022-11-17T22:53:10.933Z,99249.84
2022-11-17T22:55:38.756Z,99248.81
2022-11-17T22:58:08.176Z,99244.66
2022-11-17T23:00:36.222Z,99241.34
2022-11-17T23:03:04.380Z,99250.19
2022-11-17T23:05:32.640Z,99251.41
2022-11-17T23:08:02.187Z,99245.84
2022-11-17T23:10:34.492Z,99248.13
2022-11-17T23:13:02.382Z,99248.16
2022-11-17T23:15:32.388Z,99247.56
2022-11-17T23:18:00.065Z,99246.34
2022-11-17T23:20:28.036Z,99256.88
2022-11-17T23:22:56.047Z,99255.16
2022-11-17T23:25:24.895Z,99265.34
2022-11-17T23:27:53.961Z,99269.38
2022-11-17T23:30:22.555Z,99264.16
2022-11-17T23:32:50.236Z,99269.59
2022-11-17T23:35:18.063Z,99276.63
2022-11-17T23:37:45.848Z,99272.03
2022-11-17T23:40:13.740Z,99270.56
2022-11-17T23:42:43.187Z,99278.66
2022-11-17T23:45:12.943Z,99281.19
2022-11-17T23:47:40.688Z,99278.75
2022-11-17T23:50:09.416Z,99276.22
2022-11-17T23:52:37.139Z,99272.50
2022-11-17T23:55:05.185Z,99274.78
2022-11-17T23:57:32.839Z,99273.28
